createdAt,value
2022-08-05T00:01:01.007Z,41.35
2022-08-05T00:04:20.827Z,41.53
2022-08-05T00:07:59.732Z,41.29
2022-08-05T00:10:49.351Z,41.27
2022-08-05T00:13:53.162Z,41.43
2022-08-05T00:16:56.527Z,40.96
2022-08-05T00:20:02.065Z,40.78
2022-08-05T00:23:12.968Z,41.82
2022-08-05T00:26:19.866Z,41.84
2022-08-05T00:29:25.752Z,41.62
2022-08-05T00:32:29.313Z,41.42
2022-08-05T00:35:32.949Z,41.30
2022-08-05T00:38:41.183Z,40.97
2022-08-05T00:41:55.232Z,41.55
2022-08-05T00:44:59.348Z,41.27
2022-08-05T00:48:05.382Z,41.51
2022-08-05T00:51:50.977Z,41.17
2022-08-05T00:54:34.204Z,41.31
2022-08-05T00:57:55.172Z,41.20
2022-08-05T01:00:59.427Z,41.52
2022-08-05T01:04:04.007Z,41.16
2022-08-05T01:07:31.668Z,40.96
2022-08-05T01:10:51.516Z,41.30
2022-08-05T01:14:08.458Z,41.37
2022-08-05T01:17:15.351Z,41.68
2022-08-05T01:20:30.815Z,41.70
2022-08-05T01:23:45.702Z,41.79
2022-08-05T01:27:17.582Z,42.29
2022-08-05T01:30:34.894Z,43.34
2022-08-05T01:33:49.304Z,44.35
2022-08-05T01:37:03.591Z,43.23
2022-08-05T01:40:10.108Z,43.96
2022-08-05T01:43:22.110Z,44.51
2022-08-05T01:46:42.560Z,43.90
2022-08-05T01:50:01.374Z,44.34
2022-08-05T01:53:11.061Z,43.59
2022-08-05T01:58:10.549Z,43.65
2022-08-05T01:59:42.215Z,44.62
2022-08-05T02:02:57.255Z,43.82
2022-08-05T02:06:12.688Z,43.43
2022-08-05T02:09:25.651Z,43.23
2022-08-05T02:12:38.602Z,43.82
2022-08-05T02:15:46.355Z,43.56
2022-08-05T02:18:55.928Z,43.74
2022-08-05T02:22:03.324Z,43.00
2022-08-05T02:25:13.716Z,43.15
2022-08-05T02:28:29.018Z,43.13
2022-08-05T02:31:36.989Z,43.33
2022-08-05T02:34:43.584Z,43.34
2022-08-05T02:38:00.201Z,43.78
2022-08-05T02:41:17.295Z,44.10
2022-08-05T02:44:25.597Z,44.00
2022-08-05T02:47:58.698Z,44.37
2022-08-05T02:50:58.071Z,45.16
2022-08-05T02:54:03.468Z,45.11
2022-08-05T02:58:09.708Z,46.12
2022-08-05T03:00:36.744Z,44.96
2022-08-05T03:04:03.383Z,45.07
2022-08-05T03:07:09.783Z,45.47
2022-08-05T03:10:33.168Z,45.62
2022-08-05T03:13:51.896Z,45.77
2022-08-05T03:17:00.045Z,45.26
2022-08-05T03:20:04.850Z,45.30
2022-08-05T03:23:12.908Z,45.42
2022-08-05T03:26:32.517Z,45.72
2022-08-05T03:29:45.761Z,46.29
2022-08-05T03:33:01.114Z,46.85
2022-08-05T03:36:06.742Z,46.09
2022-08-05T03:39:26.748Z,46.08
2022-08-05T03:42:32.411Z,45.86
2022-08-05T03:45:57.386Z,46.00
2022-08-05T03:49:02.310Z,45.85
2022-08-05T03:52:50.074Z,46.77
2022-08-05T03:56:06.147Z,46.24
2022-08-05T03:59:10.593Z,45.30
2022-08-05T04:02:17.533Z,44.29
2022-08-05T04:05:40.901Z,43.92
2022-08-05T04:08:46.037Z,43.30
2022-08-05T04:11:53.422Z,42.95
2022-08-05T04:14:57.561Z,44.37
2022-08-05T04:18:03.338Z,45.02
2022-08-05T04:21:07.514Z,45.59
2022-08-05T04:24:19.545Z,44.73
2022-08-05T04:27:41.577Z,45.91
2022-08-05T04:30:47.051Z,44.12
2022-08-05T04:34:17.662Z,45.35
2022-08-05T04:37:14.774Z,45.41
2022-08-05T04:40:20.132Z,46.19
2022-08-05T04:43:24.906Z,45.50
2022-08-05T04:46:29.395Z,45.49
2022-08-05T04:50:01.353Z,44.42
2022-08-05T04:52:56.533Z,43.58
2022-08-05T04:56:33.269Z,44.46
2022-08-05T04:59:36.669Z,43.99
2022-08-05T05:02:43.320Z,43.91
2022-08-05T05:06:36.645Z,42.65
2022-08-05T05:09:13.296Z,42.36
2022-08-05T05:12:20.298Z,42.31
2022-08-05T05:15:57.848Z,43.78
2022-08-05T05:19:16.465Z,42.19
2022-08-05T05:22:24.239Z,41.44
2022-08-05T05:25:32.838Z,41.06
2022-08-05T05:28:45.141Z,40.52
2022-08-05T05:31:49.995Z,40.18
2022-08-05T05:34:54.512Z,39.52
2022-08-05T05:38:01.743Z,39.73
2022-08-05T05:41:07.645Z,39.07
2022-08-05T05:44:35.559Z,39.38
2022-08-05T05:48:05.756Z,39.61
2022-08-05T05:50:59.627Z,39.56
2022-08-05T05:54:19.697Z,39.53
2022-08-05T05:57:23.254Z,39.41
2022-08-05T06:00:27.787Z,38.48
2022-08-05T06:03:53.640Z,38.54
2022-08-05T06:07:02.620Z,37.57
2022-08-05T06:10:10.147Z,37.58
2022-08-05T06:13:13.822Z,37.54
2022-08-05T06:16:30.072Z,37.34
2022-08-05T06:19:36.777Z,36.98
2022-08-05T06:22:40.551Z,37.28
2022-08-05T06:26:12.728Z,36.28
2022-08-05T06:29:25.083Z,36.41
2022-08-05T06:32:32.495Z,36.54
2022-08-05T06:36:07.720Z,35.98
2022-08-05T06:39:00.974Z,34.69
2022-08-05T06:42:04.519Z,35.45
2022-08-05T06:45:09.536Z,35.44
2022-08-05T06:48:54.523Z,34.96
2022-08-05T06:51:40.846Z,35.51
2022-08-05T06:54:44.371Z,35.94
2022-08-05T06:58:02.922Z,35.19
2022-08-05T07:01:21.003Z,35.00
2022-08-05T07:04:24.592Z,35.18
2022-08-05T07:07:43.322Z,35.88
2022-08-05T07:10:52.879Z,34.98
2022-08-05T07:14:15.364Z,34.70
2022-08-05T07:18:01.764Z,34.36
2022-08-05T07:20:46.663Z,35.00
2022-08-05T07:23:52.239Z,35.08
2022-08-05T07:26:55.742Z,34.43
2022-08-05T07:30:24.187Z,34.60
2022-08-05T07:33:36.526Z,33.55
2022-08-05T07:36:41.005Z,33.49
2022-08-05T07:40:26.571Z,33.70
2022-08-05T07:43:20.190Z,32.88
2022-08-05T07:46:26.231Z,33.26
2022-08-05T07:49:29.833Z,33.32
2022-08-05T07:52:33.309Z,32.71
2022-08-05T07:56:04.654Z,32.82
2022-08-05T07:59:01.337Z,33.00
2022-08-05T08:02:05.197Z,32.54
2022-08-05T08:05:08.968Z,32.41
2022-08-05T08:08:15.081Z,32.43
2022-08-05T08:11:27.617Z,31.87
2022-08-05T08:14:44.616Z,31.71
2022-08-05T08:17:52.796Z,31.64
2022-08-05T08:21:02.694Z,30.95
2022-08-05T08:24:13.556Z,32.17
2022-08-05T08:27:18.950Z,31.90
2022-08-05T08:30:32.437Z,30.90
2022-08-05T08:33:38.539Z,30.85
2022-08-05T08:36:48.977Z,30.71
2022-08-05T08:39:56.056Z,30.90
2022-08-05T08:45:16.430Z,30.18
2022-08-05T08:46:27.519Z,30.39
2022-08-05T08:50:05.841Z,29.42
2022-08-05T08:53:24.219Z,29.88
2022-08-05T08:56:28.742Z,29.59
2022-08-05T08:59:33.934Z,29.73
2022-08-05T09:02:37.720Z,28.67
2022-08-05T09:06:08.971Z,29.25
2022-08-05T09:09:07.200Z,28.29
2022-08-05T09:12:20.469Z,27.84
2022-08-05T09:15:32.711Z,27.30
2022-08-05T09:18:43.786Z,26.69
2022-08-05T09:22:18.002Z,26.29
2022-08-05T09:25:14.049Z,25.99
2022-08-05T09:28:32.462Z,26.22
2022-08-05T09:32:40.771Z,26.94
2022-08-05T09:35:02.888Z,27.08
2022-08-05T09:38:12.958Z,27.43
2022-08-05T09:41:21.149Z,26.41
2022-08-05T09:44:37.977Z,26.82
2022-08-05T09:47:55.112Z,26.44
2022-08-05T09:51:01.215Z,26.40
2022-08-05T09:54:08.428Z,26.46
2022-08-05T09:57:29.344Z,26.04
2022-08-05T10:00:38.879Z,25.86
2022-08-05T10:03:58.867Z,25.74
2022-08-05T10:07:20.711Z,25.57
2022-08-05T10:10:32.427Z,25.63
2022-08-05T10:13:48.047Z,25.54
2022-08-05T10:16:56.321Z,25.37
2022-08-05T10:20:04.119Z,25.52
2022-08-05T10:23:34.034Z,26.13
2022-08-05T10:26:51.871Z,25.48
2022-08-05T10:30:41.191Z,25.56
2022-08-05T10:33:19.508Z,25.31
2022-08-05T10:36:26.031Z,26.00
2022-08-05T10:39:59.301Z,25.54
2022-08-05T10:43:04.545Z,26.38
2022-08-05T10:46:10.399Z,26.34
2022-08-05T10:49:16.884Z,27.20
2022-08-05T10:52:47.009Z,26.54
2022-08-05T10:56:21.214Z,26.21
2022-08-05T11:00:01.790Z,25.17
2022-08-05T11:03:25.082Z,25.52
2022-08-05T11:06:30.824Z,24.59
2022-08-05T11:09:46.905Z,24.86
2022-08-05T11:12:55.068Z,24.84
2022-08-05T11:16:22.790Z,25.02
2022-08-05T11:20:17.127Z,24.83
2022-08-05T11:24:02.622Z,24.43
2022-08-05T11:27:51.404Z,24.35
2022-08-05T11:31:56.361Z,24.39
2022-08-05T11:34:47.494Z,24.16
2022-08-05T11:38:30.792Z,24.66
2022-08-05T11:41:58.154Z,24.55
2022-08-05T11:44:55.002Z,24.76
2022-08-05T11:47:59.023Z,24.72
2022-08-05T11:51:03.327Z,24.65
2022-08-05T11:54:07.373Z,24.61
2022-08-05T11:57:24.887Z,24.86
2022-08-05T12:00:31.968Z,25.29
2022-08-05T12:03:55.644Z,25.83
2022-08-05T12:07:01.948Z,26.31
2022-08-05T12:10:06.379Z,26.31
2022-08-05T12:13:16.844Z,25.40
2022-08-05T12:16:25.371Z,25.73
2022-08-05T12:20:25.515Z,26.57
2022-08-05T12:22:53.871Z,27.23
2022-08-05T12:25:58.621Z,26.67
2022-08-05T12:29:03.319Z,26.35
2022-08-05T12:32:09.559Z,26.66
2022-08-05T12:35:16.728Z,26.12
2022-08-05T12:38:22.276Z,25.52
2022-08-05T12:41:35.429Z,25.53
2022-08-05T12:44:47.499Z,25.08
2022-08-05T12:48:01.353Z,24.95
2022-08-05T12:52:09.868Z,24.45
2022-08-05T12:54:43.871Z,25.31
2022-08-05T12:58:50.148Z,24.62
2022-08-05T13:02:03.206Z,25.11
2022-08-05T13:04:41.774Z,24.91
2022-08-05T13:08:01.025Z,25.14
2022-08-05T13:11:04.924Z,24.98
2022-08-05T13:14:25.081Z,24.51
2022-08-05T13:17:41.748Z,24.73
2022-08-05T13:20:47.426Z,25.33
2022-08-05T13:23:52.777Z,26.27
2022-08-05T13:26:56.119Z,25.89
2022-08-05T13:30:33.105Z,25.84
2022-08-05T13:34:22.897Z,25.90
2022-08-05T13:36:49.534Z,25.23
2022-08-05T13:40:14.661Z,26.14
2022-08-05T13:43:22.127Z,25.14
2022-08-05T13:46:43.851Z,24.56
2022-08-05T13:49:52.151Z,23.82
2022-08-05T13:52:56.913Z,23.88
2022-08-05T13:56:02.250Z,24.22
2022-08-05T13:59:06.025Z,23.95
2022-08-05T14:02:20.088Z,24.00
2022-08-05T14:06:25.221Z,24.00
2022-08-05T14:08:59.540Z,23.98
2022-08-05T14:12:17.128Z,23.44
2022-08-05T14:16:08.192Z,23.45
2022-08-05T14:18:54.939Z,23.75
2022-08-05T14:22:10.446Z,23.08
2022-08-05T14:25:21.750Z,22.78
2022-08-05T14:28:26.800Z,23.40
2022-08-05T14:31:54.410Z,22.92
2022-08-05T14:34:54.715Z,23.25
2022-08-05T14:38:01.111Z,23.54
2022-08-05T14:41:07.836Z,23.04
2022-08-05T14:44:20.275Z,23.24
2022-08-05T14:48:02.890Z,23.90
2022-08-05T14:50:48.885Z,23.13
2022-08-05T14:54:26.079Z,23.69
2022-08-05T14:57:17.835Z,23.56
2022-08-05T15:00:21.885Z,23.44
2022-08-05T15:03:38.944Z,23.74
2022-08-05T15:06:42.529Z,23.13
2022-08-05T15:09:54.347Z,23.16
2022-08-05T15:13:03.422Z,23.13
2022-08-05T15:16:13.163Z,22.99
2022-08-05T15:19:23.737Z,23.58
2022-08-05T15:22:28.128Z,24.42
2022-08-05T15:25:51.301Z,25.42
2022-08-05T15:28:56.693Z,26.13
2022-08-05T15:32:02.331Z,25.97
2022-08-05T15:35:10.685Z,26.05
2022-08-05T15:38:35.841Z,26.39
2022-08-05T15:41:55.743Z,26.54
2022-08-05T15:45:02.276Z,26.69
2022-08-05T15:48:06.874Z,26.97
2022-08-05T15:51:10.434Z,27.87
2022-08-05T15:54:15.058Z,27.31
2022-08-05T15:57:19.015Z,27.38
2022-08-05T16:00:26.371Z,27.38
2022-08-05T16:03:50.251Z,27.34
2022-08-05T16:06:53.860Z,27.09
2022-08-05T16:09:59.016Z,26.67
2022-08-05T16:13:02.335Z,27.19
2022-08-05T16:16:07.894Z,26.89
2022-08-05T16:19:19.237Z,26.99
2022-08-05T16:22:34.328Z,26.46
2022-08-05T16:25:38.318Z,27.17
2022-08-05T16:28:42.284Z,26.60
2022-08-05T16:31:56.351Z,26.69
2022-08-05T16:35:00.764Z,26.68
2022-08-05T16:38:24.632Z,26.22
2022-08-05T16:42:27.732Z,26.71
2022-08-05T16:44:54.326Z,26.71
2022-08-05T16:48:02.969Z,27.92
2022-08-05T16:51:09.886Z,27.59
2022-08-05T16:54:17.543Z,27.61
2022-08-05T16:57:53.556Z,27.83
2022-08-05T17:00:49.686Z,28.04
2022-08-05T17:03:54.533Z,27.94
2022-08-05T17:07:01.302Z,28.48
2022-08-05T17:10:05.318Z,27.93
2022-08-05T17:13:16.894Z,28.76
2022-08-05T17:16:33.668Z,28.77
2022-08-05T17:19:45.358Z,29.41
2022-08-05T17:22:55.223Z,29.15
2022-08-05T17:25:59.080Z,29.65
2022-08-05T17:29:07.330Z,30.16
2022-08-05T17:32:17.351Z,30.41
2022-08-05T17:35:22.824Z,29.52
2022-08-05T17:38:26.370Z,29.76
2022-08-05T17:42:17.691Z,29.79
2022-08-05T17:44:53.271Z,29.84
2022-08-05T17:47:56.690Z,29.98
2022-08-05T17:51:01.389Z,30.28
2022-08-05T17:54:12.376Z,30.45
2022-08-05T17:57:17.740Z,30.67
2022-08-05T18:00:29.476Z,30.68
2022-08-05T18:03:59.577Z,31.05
2022-08-05T18:07:01.162Z,31.16
2022-08-05T18:10:08.892Z,31.30
2022-08-05T18:13:13.903Z,31.44
2022-08-05T18:16:18.078Z,31.58
2022-08-05T18:19:26.028Z,31.57
2022-08-05T18:22:45.996Z,31.89
2022-08-05T18:25:57.557Z,32.13
2022-08-05T18:29:01.289Z,32.43
2022-08-05T18:32:04.900Z,32.74
2022-08-05T18:35:08.873Z,32.65
2022-08-05T18:38:19.377Z,32.82
2022-08-05T18:41:56.410Z,32.82
2022-08-05T18:44:56.396Z,32.91
2022-08-05T18:48:00.104Z,33.18
2022-08-05T18:52:04.584Z,32.96
2022-08-05T18:54:46.178Z,33.39
2022-08-05T18:57:53.142Z,33.41
2022-08-05T19:00:57.297Z,33.24
2022-08-05T19:04:00.676Z,33.40
2022-08-05T19:07:04.013Z,34.06
2022-08-05T19:10:12.027Z,34.09
2022-08-05T19:13:15.779Z,34.45
2022-08-05T19:16:24.516Z,34.33
2022-08-05T19:19:30.976Z,34.09
2022-08-05T19:22:34.272Z,34.20
2022-08-05T19:25:44.624Z,34.54
2022-08-05T19:28:48.431Z,34.30
2022-08-05T19:31:51.810Z,34.38
2022-08-05T19:34:55.853Z,34.48
2022-08-05T19:38:06.487Z,34.46
2022-08-05T19:41:12.810Z,35.21
2022-08-05T19:44:16.092Z,35.59
2022-08-05T19:47:19.832Z,35.26
2022-08-05T19:50:23.164Z,34.67
2022-08-05T19:54:05.191Z,35.13
2022-08-05T19:56:54.299Z,34.85
2022-08-05T20:00:02.572Z,35.19
2022-08-05T20:03:15.367Z,35.08
2022-08-05T20:06:29.074Z,35.01
2022-08-05T20:09:55.136Z,34.85
2022-08-05T20:12:57.646Z,35.06
2022-08-05T20:16:01.032Z,35.10
2022-08-05T20:19:07.546Z,35.42
2022-08-05T20:22:11.210Z,35.17
2022-08-05T20:25:15.013Z,35.78
2022-08-05T20:28:20.392Z,36.05
2022-08-05T20:31:37.252Z,35.73
2022-08-05T20:34:47.342Z,35.32
2022-08-05T20:38:07.666Z,35.25
2022-08-05T20:41:11.784Z,36.17
2022-08-05T20:44:30.853Z,36.50
2022-08-05T20:47:34.500Z,36.19
2022-08-05T20:50:45.438Z,36.40
2022-08-05T20:53:55.209Z,36.37
2022-08-05T20:57:00.529Z,36.20
2022-08-05T21:00:35.053Z,36.52
2022-08-05T21:03:38.902Z,36.78
2022-08-05T21:06:55.747Z,36.61
2022-08-05T21:09:59.535Z,37.13
2022-08-05T21:13:11.098Z,36.64
2022-08-05T21:16:20.743Z,37.06
2022-08-05T21:19:26.515Z,36.79
2022-08-05T21:22:31.759Z,37.84
2022-08-05T21:25:35.177Z,38.21
2022-08-05T21:28:40.057Z,37.77
2022-08-05T21:31:52.528Z,38.47
2022-08-05T21:35:09.064Z,38.45
2022-08-05T21:38:20.348Z,38.75
2022-08-05T21:41:23.722Z,38.91
2022-08-05T21:44:27.986Z,39.48
2022-08-05T21:47:57.086Z,39.12
2022-08-05T21:50:56.157Z,39.72
2022-08-05T21:54:03.975Z,39.24
2022-08-05T21:57:30.159Z,40.06
2022-08-05T22:00:31.271Z,39.94
2022-08-05T22:03:48.462Z,40.19
2022-08-05T22:06:57.300Z,39.92
2022-08-05T22:10:00.770Z,39.90
2022-08-05T22:13:09.269Z,40.88
2022-08-05T22:16:41.761Z,40.23
2022-08-05T22:20:03.098Z,39.95
2022-08-05T22:24:01.063Z,40.66
2022-08-05T22:27:16.706Z,40.51
2022-08-05T22:30:20.846Z,41.30
2022-08-05T22:33:56.705Z,41.19
2022-08-05T22:36:49.194Z,41.26
2022-08-05T22:39:52.507Z,41.96
2022-08-05T22:42:58.693Z,42.00
2022-08-05T22:46:07.236Z,42.18
2022-08-05T22:50:18.033Z,42.85
2022-08-05T22:52:41.145Z,42.21
2022-08-05T22:55:56.490Z,42.00
2022-08-05T22:59:02.904Z,42.45
2022-08-05T23:02:08.183Z,43.63
2022-08-05T23:05:11.693Z,43.71
2022-08-05T23:08:16.589Z,44.26
2022-08-05T23:11:20.139Z,45.13
2022-08-05T23:14:31.983Z,44.60
2022-08-05T23:17:37.667Z,45.03
2022-08-05T23:20:59.742Z,44.55
2022-08-05T23:24:11.390Z,45.85
2022-08-05T23:27:15.238Z,46.11
2022-08-05T23:30:18.585Z,46.12
2022-08-05T23:33:26.542Z,44.80
2022-08-05T23:36:45.483Z,44.65
2022-08-05T23:39:54.177Z,44.11
2022-08-05T23:42:58.178Z,44.00
2022-08-05T23:46:02.310Z,45.29
2022-08-05T23:49:16.763Z,45.15
2022-08-05T23:52:35.792Z,44.66
2022-08-05T23:55:41.512Z,45.54
2022-08-05T23:58:46.470Z,45.19
